sensor_id;sensor_type;location;lat;lon;timestamp;P1;durP1;ratioP1;P2;durP2;ratioP2
25213;SDS011;13160;51.834;4.706;2022-10-31T00:00:50;25.20;;;19.23;;
25213;SDS011;13160;51.834;4.706;2022-10-31T00:03:25;22.08;;;18.25;;
25213;SDS011;13160;51.834;4.706;2022-10-31T00:06:13;23.38;;;16.38;;
25213;SDS011;13160;51.834;4.706;2022-10-31T00:09:03;18.40;;;14.38;;
25213;SDS011;13160;51.834;4.706;2022-10-31T00:11:56;18.85;;;13.23;;
25213;SDS011;13160;51.834;4.706;2022-10-31T00:14:29;15.77;;;12.85;;
25213;SDS011;13160;51.834;4.706;2022-10-31T00:19:57;19.50;;;11.52;;
25213;SDS011;13160;51.834;4.706;2022-10-31T00:22:39;15.77;;;11.80;;
25213;SDS011;13160;51.834;4.706;2022-10-31T00:25:08;16.95;;;12.15;;
25213;SDS011;13160;51.834;4.706;2022-10-31T00:27:53;21.10;;;12.35;;
25213;SDS011;13160;51.834;4.706;2022-10-31T00:30:52;17.35;;;11.50;;
25213;SDS011;13160;51.834;4.706;2022-10-31T00:33:26;14.98;;;11.50;;
25213;SDS011;13160;51.834;4.706;2022-10-31T00:36:04;15.88;;;11.93;;
25213;SDS011;13160;51.834;4.706;2022-10-31T00:39:21;15.60;;;11.35;;
25213;SDS011;13160;51.834;4.706;2022-10-31T00:42:19;14.98;;;11.75;;
25213;SDS011;13160;51.834;4.706;2022-10-31T00:45:19;17.92;;;11.90;;
25213;SDS011;13160;51.834;4.706;2022-10-31T00:47:53;15.63;;;12.25;;
25213;SDS011;13160;51.834;4.706;2022-10-31T00:53:38;15.98;;;11.20;;
25213;SDS011;13160;51.834;4.706;2022-10-31T00:56:15;18.65;;;11.57;;
25213;SDS011;13160;51.834;4.706;2022-10-31T00:58:49;13.80;;;11.43;;
25213;SDS011;13160;51.834;4.706;2022-10-31T01:01:30;14.35;;;11.57;;
25213;SDS011;13160;51.834;4.706;2022-10-31T01:04:11;16.50;;;11.95;;
25213;SDS011;13160;51.834;4.706;2022-10-31T01:07:09;12.93;;;11.07;;
25213;SDS011;13160;51.834;4.706;2022-10-31T01:09:54;15.05;;;11.15;;
25213;SDS011;13160;51.834;4.706;2022-10-31T01:12:36;17.63;;;11.23;;
25213;SDS011;13160;51.834;4.706;2022-10-31T01:15:16;15.85;;;11.38;;
25213;SDS011;13160;51.834;4.706;2022-10-31T01:17:55;16.50;;;11.73;;
25213;SDS011;13160;51.834;4.706;2022-10-31T01:20:31;17.92;;;11.73;;
25213;SDS011;13160;51.834;4.706;2022-10-31T01:23:04;14.27;;;12.15;;
25213;SDS011;13160;51.834;4.706;2022-10-31T01:25:58;15.38;;;11.88;;
25213;SDS011;13160;51.834;4.706;2022-10-31T01:29:03;13.77;;;11.25;;
25213;SDS011;13160;51.834;4.706;2022-10-31T01:31:43;14.40;;;11.10;;
25213;SDS011;13160;51.834;4.706;2022-10-31T01:34:24;15.00;;;11.07;;
25213;SDS011;13160;51.834;4.706;2022-10-31T01:37:07;17.00;;;11.98;;
25213;SDS011;13160;51.834;4.706;2022-10-31T01:39:46;14.18;;;11.05;;
25213;SDS011;13160;51.834;4.706;2022-10-31T01:42:23;17.38;;;12.65;;
25213;SDS011;13160;51.834;4.706;2022-10-31T01:45:11;16.02;;;12.40;;
25213;SDS011;13160;51.834;4.706;2022-10-31T01:47:49;15.27;;;12.43;;
25213;SDS011;13160;51.834;4.706;2022-10-31T01:50:26;20.30;;;13.77;;
25213;SDS011;13160;51.834;4.706;2022-10-31T01:53:04;17.90;;;13.45;;
25213;SDS011;13160;51.834;4.706;2022-10-31T01:55:42;18.58;;;14.55;;
25213;SDS011;13160;51.834;4.706;2022-10-31T01:58:24;19.40;;;14.20;;
25213;SDS011;13160;51.834;4.706;2022-10-31T02:01:06;18.95;;;13.20;;
25213;SDS011;13160;51.834;4.706;2022-10-31T02:03:40;16.38;;;14.07;;
25213;SDS011;13160;51.834;4.706;2022-10-31T02:06:27;20.13;;;14.73;;
25213;SDS011;13160;51.834;4.706;2022-10-31T02:09:19;18.60;;;14.50;;
25213;SDS011;13160;51.834;4.706;2022-10-31T02:11:54;20.38;;;14.32;;
25213;SDS011;13160;51.834;4.706;2022-10-31T02:14:37;19.58;;;14.80;;
25213;SDS011;13160;51.834;4.706;2022-10-31T02:17:16;19.55;;;15.25;;
25213;SDS011;13160;51.834;4.706;2022-10-31T02:19:54;18.77;;;15.38;;
25213;SDS011;13160;51.834;4.706;2022-10-31T02:30:03;23.40;;;16.48;;
25213;SDS011;13160;51.834;4.706;2022-10-31T02:32:47;20.10;;;15.40;;
25213;SDS011;13160;51.834;4.706;2022-10-31T02:35:48;20.63;;;15.68;;
25213;SDS011;13160;51.834;4.706;2022-10-31T02:38:34;21.10;;;16.77;;
25213;SDS011;13160;51.834;4.706;2022-10-31T02:41:18;21.50;;;17.17;;
25213;SDS011;13160;51.834;4.706;2022-10-31T02:43:57;24.15;;;17.23;;
25213;SDS011;13160;51.834;4.706;2022-10-31T02:46:42;20.73;;;16.63;;
25213;SDS011;13160;51.834;4.706;2022-10-31T02:49:23;21.85;;;16.77;;
25213;SDS011;13160;51.834;4.706;2022-10-31T02:52:01;20.55;;;16.05;;
25213;SDS011;13160;51.834;4.706;2022-10-31T02:54:35;20.95;;;16.65;;
25213;SDS011;13160;51.834;4.706;2022-10-31T02:57:18;23.67;;;17.35;;
25213;SDS011;13160;51.834;4.706;2022-10-31T02:59:54;21.38;;;17.10;;
25213;SDS011;13160;51.834;4.706;2022-10-31T03:02:50;27.58;;;19.90;;
25213;SDS011;13160;51.834;4.706;2022-10-31T03:05:40;25.45;;;20.77;;
25213;SDS011;13160;51.834;4.706;2022-10-31T03:08:19;29.50;;;22.58;;
25213;SDS011;13160;51.834;4.706;2022-10-31T03:10:56;30.35;;;22.77;;
25213;SDS011;13160;51.834;4.706;2022-10-31T03:13:31;29.08;;;23.02;;
25213;SDS011;13160;51.834;4.706;2022-10-31T03:16:09;27.98;;;22.80;;
25213;SDS011;13160;51.834;4.706;2022-10-31T03:18:43;27.20;;;22.23;;
25213;SDS011;13160;51.834;4.706;2022-10-31T03:21:25;27.73;;;23.33;;
25213;SDS011;13160;51.834;4.706;2022-10-31T03:23:56;27.40;;;22.95;;
25213;SDS011;13160;51.834;4.706;2022-10-31T03:26:30;27.60;;;23.67;;
25213;SDS011;13160;51.834;4.706;2022-10-31T03:29:03;27.75;;;23.90;;
25213;SDS011;13160;51.834;4.706;2022-10-31T03:31:37;30.65;;;24.88;;
25213;SDS011;13160;51.834;4.706;2022-10-31T03:34:14;31.95;;;26.33;;
25213;SDS011;13160;51.834;4.706;2022-10-31T03:37:03;32.72;;;25.77;;
25213;SDS011;13160;51.834;4.706;2022-10-31T03:39:36;31.33;;;25.52;;
25213;SDS011;13160;51.834;4.706;2022-10-31T03:42:09;30.50;;;25.15;;
25213;SDS011;13160;51.834;4.706;2022-10-31T03:44:42;31.20;;;25.30;;
25213;SDS011;13160;51.834;4.706;2022-10-31T03:47:18;32.72;;;24.67;;
25213;SDS011;13160;51.834;4.706;2022-10-31T03:49:48;28.92;;;25.10;;
25213;SDS011;13160;51.834;4.706;2022-10-31T03:52:21;34.17;;;27.00;;
25213;SDS011;13160;51.834;4.706;2022-10-31T03:54:56;35.10;;;26.80;;
25213;SDS011;13160;51.834;4.706;2022-10-31T03:57:34;31.92;;;25.85;;
25213;SDS011;13160;51.834;4.706;2022-10-31T04:00:07;32.08;;;26.25;;
25213;SDS011;13160;51.834;4.706;2022-10-31T04:02:40;34.10;;;26.90;;
25213;SDS011;13160;51.834;4.706;2022-10-31T04:05:13;33.53;;;26.15;;
25213;SDS011;13160;51.834;4.706;2022-10-31T04:07:49;31.42;;;25.63;;
25213;SDS011;13160;51.834;4.706;2022-10-31T04:10:25;33.00;;;25.98;;
25213;SDS011;13160;51.834;4.706;2022-10-31T04:13:00;30.75;;;26.35;;
25213;SDS011;13160;51.834;4.706;2022-10-31T04:15:35;31.50;;;25.52;;
25213;SDS011;13160;51.834;4.706;2022-10-31T04:18:14;31.38;;;27.02;;
25213;SDS011;13160;51.834;4.706;2022-10-31T04:20:46;33.13;;;26.33;;
25213;SDS011;13160;51.834;4.706;2022-10-31T04:23:18;30.35;;;26.00;;
25213;SDS011;13160;51.834;4.706;2022-10-31T04:25:50;29.50;;;26.15;;
25213;SDS011;13160;51.834;4.706;2022-10-31T04:28:20;36.80;;;29.30;;
25213;SDS011;13160;51.834;4.706;2022-10-31T04:30:50;37.30;;;27.98;;
25213;SDS011;13160;51.834;4.706;2022-10-31T04:33:19;36.47;;;29.75;;
25213;SDS011;13160;51.834;4.706;2022-10-31T04:35:48;36.92;;;29.15;;
25213;SDS011;13160;51.834;4.706;2022-10-31T04:38:18;39.67;;;30.90;;
25213;SDS011;13160;51.834;4.706;2022-10-31T04:40:47;37.80;;;29.52;;
25213;SDS011;13160;51.834;4.706;2022-10-31T04:43:16;35.92;;;30.33;;
25213;SDS011;13160;51.834;4.706;2022-10-31T04:45:47;38.33;;;31.60;;
25213;SDS011;13160;51.834;4.706;2022-10-31T04:48:16;39.85;;;31.70;;
25213;SDS011;13160;51.834;4.706;2022-10-31T04:50:45;44.35;;;33.38;;
25213;SDS011;13160;51.834;4.706;2022-10-31T04:53:14;39.55;;;31.30;;
25213;SDS011;13160;51.834;4.706;2022-10-31T04:55:44;40.50;;;32.97;;
25213;SDS011;13160;51.834;4.706;2022-10-31T04:58:13;45.80;;;32.58;;
25213;SDS011;13160;51.834;4.706;2022-10-31T05:00:47;41.47;;;32.95;;
25213;SDS011;13160;51.834;4.706;2022-10-31T05:03:20;42.35;;;33.10;;
25213;SDS011;13160;51.834;4.706;2022-10-31T05:05:50;41.58;;;32.20;;
25213;SDS011;13160;51.834;4.706;2022-10-31T05:08:19;38.90;;;31.92;;
25213;SDS011;13160;51.834;4.706;2022-10-31T05:10:49;41.03;;;32.03;;
25213;SDS011;13160;51.834;4.706;2022-10-31T05:13:18;38.67;;;31.50;;
25213;SDS011;13160;51.834;4.706;2022-10-31T05:15:50;45.05;;;33.10;;
25213;SDS011;13160;51.834;4.706;2022-10-31T05:18:19;42.58;;;32.72;;
25213;SDS011;13160;51.834;4.706;2022-10-31T05:20:47;40.80;;;32.55;;
25213;SDS011;13160;51.834;4.706;2022-10-31T05:23:16;43.35;;;33.58;;
25213;SDS011;13160;51.834;4.706;2022-10-31T05:25:44;42.45;;;34.03;;
25213;SDS011;13160;51.834;4.706;2022-10-31T05:28:55;47.35;;;35.63;;
25213;SDS011;13160;51.834;4.706;2022-10-31T05:32:26;47.60;;;35.15;;
25213;SDS011;13160;51.834;4.706;2022-10-31T05:35:24;47.25;;;35.72;;
25213;SDS011;13160;51.834;4.706;2022-10-31T05:38:19;45.90;;;35.17;;
25213;SDS011;13160;51.834;4.706;2022-10-31T05:44:21;46.72;;;34.25;;
25213;SDS011;13160;51.834;4.706;2022-10-31T05:47:08;47.08;;;35.72;;
25213;SDS011;13160;51.834;4.706;2022-10-31T05:49:54;44.85;;;34.08;;
25213;SDS011;13160;51.834;4.706;2022-10-31T05:52:40;50.65;;;34.08;;
25213;SDS011;13160;51.834;4.706;2022-10-31T05:55:17;45.00;;;33.15;;
25213;SDS011;13160;51.834;4.706;2022-10-31T05:58:04;43.33;;;32.97;;
25213;SDS011;13160;51.834;4.706;2022-10-31T06:00:47;42.33;;;33.15;;
25213;SDS011;13160;51.834;4.706;2022-10-31T06:03:19;40.83;;;32.58;;
25213;SDS011;13160;51.834;4.706;2022-10-31T06:05:56;44.30;;;34.28;;
25213;SDS011;13160;51.834;4.706;2022-10-31T06:08:25;45.35;;;33.05;;
25213;SDS011;13160;51.834;4.706;2022-10-31T06:10:55;43.20;;;32.92;;
25213;SDS011;13160;51.834;4.706;2022-10-31T06:13:29;42.83;;;33.50;;
25213;SDS011;13160;51.834;4.706;2022-10-31T06:16:09;43.38;;;33.60;;
25213;SDS011;13160;51.834;4.706;2022-10-31T06:18:46;40.60;;;33.42;;
25213;SDS011;13160;51.834;4.706;2022-10-31T06:21:24;46.58;;;35.63;;
25213;SDS011;13160;51.834;4.706;2022-10-31T06:23:54;41.92;;;33.55;;
25213;SDS011;13160;51.834;4.706;2022-10-31T06:26:26;43.47;;;33.90;;
25213;SDS011;13160;51.834;4.706;2022-10-31T06:29:02;47.58;;;34.63;;
25213;SDS011;13160;51.834;4.706;2022-10-31T06:31:32;46.65;;;35.25;;
25213;SDS011;13160;51.834;4.706;2022-10-31T06:34:04;46.63;;;34.30;;
25213;SDS011;13160;51.834;4.706;2022-10-31T06:36:43;50.80;;;36.08;;
25213;SDS011;13160;51.834;4.706;2022-10-31T06:39:16;45.67;;;33.53;;
25213;SDS011;13160;51.834;4.706;2022-10-31T06:41:46;41.88;;;33.25;;
25213;SDS011;13160;51.834;4.706;2022-10-31T06:48:22;47.85;;;34.90;;
25213;SDS011;13160;51.834;4.706;2022-10-31T06:50:57;48.55;;;35.47;;
25213;SDS011;13160;51.834;4.706;2022-10-31T06:53:36;48.85;;;36.88;;
25213;SDS011;13160;51.834;4.706;2022-10-31T06:56:14;47.67;;;35.47;;
25213;SDS011;13160;51.834;4.706;2022-10-31T06:59:02;49.00;;;36.90;;
25213;SDS011;13160;51.834;4.706;2022-10-31T07:01:32;51.45;;;39.10;;
25213;SDS011;13160;51.834;4.706;2022-10-31T07:04:03;53.30;;;38.78;;
25213;SDS011;13160;51.834;4.706;2022-10-31T07:06:31;56.70;;;39.55;;
25213;SDS011;13160;51.834;4.706;2022-10-31T07:09:01;57.47;;;40.25;;
25213;SDS011;13160;51.834;4.706;2022-10-31T07:11:36;55.13;;;39.78;;
25213;SDS011;13160;51.834;4.706;2022-10-31T07:14:25;56.88;;;42.08;;
25213;SDS011;13160;51.834;4.706;2022-10-31T07:17:11;54.83;;;40.97;;
25213;SDS011;13160;51.834;4.706;2022-10-31T07:20:10;58.83;;;43.05;;
25213;SDS011;13160;51.834;4.706;2022-10-31T07:23:12;56.53;;;42.63;;
25213;SDS011;13160;51.834;4.706;2022-10-31T07:26:01;57.00;;;42.13;;
25213;SDS011;13160;51.834;4.706;2022-10-31T07:29:18;57.65;;;42.15;;
25213;SDS011;13160;51.834;4.706;2022-10-31T07:47:27;68.50;;;44.75;;
25213;SDS011;13160;51.834;4.706;2022-10-31T08:26:47;58.08;;;43.95;;
25213;SDS011;13160;51.834;4.706;2022-10-31T08:29:32;67.32;;;46.42;;
25213;SDS011;13160;51.834;4.706;2022-10-31T08:32:03;64.70;;;44.72;;
25213;SDS011;13160;51.834;4.706;2022-10-31T08:34:34;62.38;;;44.60;;
25213;SDS011;13160;51.834;4.706;2022-10-31T08:37:13;61.90;;;44.22;;
25213;SDS011;13160;51.834;4.706;2022-10-31T08:39:53;63.17;;;45.92;;
25213;SDS011;13160;51.834;4.706;2022-10-31T08:42:22;65.35;;;45.63;;
25213;SDS011;13160;51.834;4.706;2022-10-31T08:44:52;63.42;;;45.65;;
25213;SDS011;13160;51.834;4.706;2022-10-31T08:47:22;62.45;;;44.67;;
25213;SDS011;13160;51.834;4.706;2022-10-31T08:49:53;63.45;;;43.28;;
25213;SDS011;13160;51.834;4.706;2022-10-31T08:52:27;62.15;;;43.97;;
25213;SDS011;13160;51.834;4.706;2022-10-31T08:55:34;59.35;;;43.85;;
25213;SDS011;13160;51.834;4.706;2022-10-31T08:58:52;65.05;;;44.65;;
25213;SDS011;13160;51.834;4.706;2022-10-31T09:01:48;66.68;;;45.67;;
25213;SDS011;13160;51.834;4.706;2022-10-31T09:04:20;64.43;;;44.40;;
25213;SDS011;13160;51.834;4.706;2022-10-31T09:06:51;61.53;;;44.38;;
25213;SDS011;13160;51.834;4.706;2022-10-31T09:09:46;65.95;;;43.72;;
25213;SDS011;13160;51.834;4.706;2022-10-31T09:12:24;65.63;;;46.80;;
25213;SDS011;13160;51.834;4.706;2022-10-31T09:14:55;65.35;;;46.35;;
25213;SDS011;13160;51.834;4.706;2022-10-31T09:17:28;67.13;;;47.58;;
25213;SDS011;13160;51.834;4.706;2022-10-31T09:20:01;66.28;;;47.05;;
25213;SDS011;13160;51.834;4.706;2022-10-31T09:22:40;66.63;;;46.25;;
25213;SDS011;13160;51.834;4.706;2022-10-31T09:25:10;68.93;;;49.22;;
25213;SDS011;13160;51.834;4.706;2022-10-31T09:27:48;70.22;;;50.28;;
25213;SDS011;13160;51.834;4.706;2022-10-31T09:30:20;70.05;;;49.80;;
25213;SDS011;13160;51.834;4.706;2022-10-31T09:32:55;66.05;;;49.25;;
25213;SDS011;13160;51.834;4.706;2022-10-31T09:35:30;66.70;;;47.30;;
25213;SDS011;13160;51.834;4.706;2022-10-31T09:38:04;69.50;;;47.83;;
25213;SDS011;13160;51.834;4.706;2022-10-31T09:43:25;64.90;;;46.05;;
25213;SDS011;13160;51.834;4.706;2022-10-31T09:57:09;69.15;;;47.15;;
25213;SDS011;13160;51.834;4.706;2022-10-31T10:01:35;63.90;;;47.42;;
25213;SDS011;13160;51.834;4.706;2022-10-31T10:08:09;58.05;;;40.90;;
25213;SDS011;13160;51.834;4.706;2022-10-31T10:27:46;36.30;;;30.13;;
25213;SDS011;13160;51.834;4.706;2022-10-31T10:38:48;38.72;;;29.65;;
25213;SDS011;13160;51.834;4.706;2022-10-31T10:42:26;37.72;;;29.92;;
25213;SDS011;13160;51.834;4.706;2022-10-31T10:53:24;38.53;;;30.15;;
25213;SDS011;13160;51.834;4.706;2022-10-31T10:57:49;37.90;;;30.33;;
25213;SDS011;13160;51.834;4.706;2022-10-31T11:01:30;38.05;;;28.17;;
25213;SDS011;13160;51.834;4.706;2022-10-31T11:44:09;53.10;;;34.17;;
25213;SDS011;13160;51.834;4.706;2022-10-31T14:36:28;66.20;;;47.05;;
25213;SDS011;13160;51.834;4.706;2022-10-31T14:39:37;61.92;;;45.70;;
25213;SDS011;13160;51.834;4.706;2022-10-31T16:20:25;48.03;;;32.75;;
25213;SDS011;13160;51.834;4.706;2022-10-31T16:26:15;42.25;;;29.23;;
25213;SDS011;13160;51.834;4.706;2022-10-31T17:06:54;32.65;;;24.10;;
25213;SDS011;13160;51.834;4.706;2022-10-31T17:10:04;35.55;;;24.45;;
25213;SDS011;13160;51.834;4.706;2022-10-31T17:13:15;35.75;;;25.27;;
25213;SDS011;13160;51.834;4.706;2022-10-31T17:15:53;33.65;;;24.15;;
25213;SDS011;13160;51.834;4.706;2022-10-31T17:18:30;35.38;;;24.17;;
25213;SDS011;13160;51.834;4.706;2022-10-31T17:21:26;38.10;;;24.55;;
25213;SDS011;13160;51.834;4.706;2022-10-31T17:24:03;38.17;;;25.25;;
25213;SDS011;13160;51.834;4.706;2022-10-31T17:26:36;37.25;;;24.98;;
25213;SDS011;13160;51.834;4.706;2022-10-31T17:29:08;33.38;;;24.25;;
25213;SDS011;13160;51.834;4.706;2022-10-31T17:31:54;36.90;;;25.95;;
25213;SDS011;13160;51.834;4.706;2022-10-31T17:41:37;38.47;;;26.10;;
25213;SDS011;13160;51.834;4.706;2022-10-31T17:44:15;36.25;;;24.85;;
25213;SDS011;13160;51.834;4.706;2022-10-31T17:47:22;32.15;;;24.63;;
25213;SDS011;13160;51.834;4.706;2022-10-31T17:50:32;37.25;;;24.90;;
25213;SDS011;13160;51.834;4.706;2022-10-31T17:54:01;36.30;;;24.88;;
25213;SDS011;13160;51.834;4.706;2022-10-31T18:06:54;33.90;;;23.08;;
25213;SDS011;13160;51.834;4.706;2022-10-31T18:19:49;36.78;;;23.45;;
25213;SDS011;13160;51.834;4.706;2022-10-31T18:47:46;33.30;;;22.30;;
25213;SDS011;13160;51.834;4.706;2022-10-31T18:50:26;33.80;;;21.30;;
25213;SDS011;13160;51.834;4.706;2022-10-31T18:53:40;33.67;;;21.95;;
25213;SDS011;13160;51.834;4.706;2022-10-31T18:56:33;29.55;;;21.27;;
25213;SDS011;13160;51.834;4.706;2022-10-31T19:16:30;27.15;;;20.20;;
25213;SDS011;13160;51.834;4.706;2022-10-31T19:29:44;26.08;;;18.48;;
25213;SDS011;13160;51.834;4.706;2022-10-31T19:42:18;25.88;;;16.70;;
25213;SDS011;13160;51.834;4.706;2022-10-31T19:48:20;27.63;;;16.50;;
25213;SDS011;13160;51.834;4.706;2022-10-31T19:55:11;23.63;;;15.55;;
25213;SDS011;13160;51.834;4.706;2022-10-31T20:01:53;23.48;;;14.65;;
25213;SDS011;13160;51.834;4.706;2022-10-31T20:33:24;21.45;;;12.13;;
25213;SDS011;13160;51.834;4.706;2022-10-31T20:40:12;21.95;;;11.90;;
25213;SDS011;13160;51.834;4.706;2022-10-31T20:51:13;16.92;;;10.63;;
25213;SDS011;13160;51.834;4.706;2022-10-31T21:11:41;16.48;;;9.27;;
25213;SDS011;13160;51.834;4.706;2022-10-31T21:43:39;16.63;;;9.73;;
25213;SDS011;13160;51.834;4.706;2022-10-31T21:46:25;12.60;;;8.57;;
25213;SDS011;13160;51.834;4.706;2022-10-31T21:49:00;19.80;;;9.50;;
25213;SDS011;13160;51.834;4.706;2022-10-31T21:51:43;18.23;;;9.88;;
25213;SDS011;13160;51.834;4.706;2022-10-31T21:54:13;16.25;;;8.73;;
25213;SDS011;13160;51.834;4.706;2022-10-31T21:57:05;19.33;;;9.07;;
25213;SDS011;13160;51.834;4.706;2022-10-31T21:59:38;15.10;;;8.52;;
25213;SDS011;13160;51.834;4.706;2022-10-31T22:02:14;16.20;;;8.25;;
25213;SDS011;13160;51.834;4.706;2022-10-31T22:04:43;17.90;;;8.57;;
25213;SDS011;13160;51.834;4.706;2022-10-31T22:07:15;20.83;;;8.55;;
25213;SDS011;13160;51.834;4.706;2022-10-31T22:09:46;19.30;;;8.93;;
25213;SDS011;13160;51.834;4.706;2022-10-31T22:12:16;17.05;;;8.27;;
25213;SDS011;13160;51.834;4.706;2022-10-31T22:14:46;17.48;;;9.02;;
25213;SDS011;13160;51.834;4.706;2022-10-31T22:17:41;19.85;;;9.43;;
25213;SDS011;13160;51.834;4.706;2022-10-31T22:20:10;19.63;;;9.45;;
25213;SDS011;13160;51.834;4.706;2022-10-31T22:22:57;21.60;;;10.40;;
25213;SDS011;13160;51.834;4.706;2022-10-31T22:25:27;19.15;;;9.75;;
25213;SDS011;13160;51.834;4.706;2022-10-31T22:27:57;18.92;;;9.52;;
25213;SDS011;13160;51.834;4.706;2022-10-31T23:03:39;19.63;;;10.40;;
25213;SDS011;13160;51.834;4.706;2022-10-31T23:07:33;22.90;;;11.18;;
25213;SDS011;13160;51.834;4.706;2022-10-31T23:11:12;22.27;;;10.98;;
25213;SDS011;13160;51.834;4.706;2022-10-31T23:14:08;17.98;;;10.50;;
25213;SDS011;13160;51.834;4.706;2022-10-31T23:17:07;18.98;;;10.23;;
25213;SDS011;13160;51.834;4.706;2022-10-31T23:27:52;19.85;;;10.35;;
25213;SDS011;13160;51.834;4.706;2022-10-31T23:31:09;17.75;;;10.50;;
25213;SDS011;13160;51.834;4.706;2022-10-31T23:34:07;15.32;;;8.98;;
25213;SDS011;13160;51.834;4.706;2022-10-31T23:36:42;18.20;;;9.18;;
25213;SDS011;13160;51.834;4.706;2022-10-31T23:39:15;16.98;;;9.27;;
25213;SDS011;13160;51.834;4.706;2022-10-31T23:41:50;22.90;;;9.95;;
25213;SDS011;13160;51.834;4.706;2022-10-31T23:44:34;16.23;;;9.68;;
25213;SDS011;13160;51.834;4.706;2022-10-31T23:47:04;19.25;;;9.63;;
25213;SDS011;13160;51.834;4.706;2022-10-31T23:49:36;15.23;;;8.85;;
25213;SDS011;13160;51.834;4.706;2022-10-31T23:52:09;19.23;;;9.07;;
25213;SDS011;13160;51.834;4.706;2022-10-31T23:55:34;16.08;;;9.98;;
25213;SDS011;13160;51.834;4.706;2022-10-31T23:59:03;18.27;;;9.85;;
